sensor_id;sensor_type;location;lat;lon;timestamp;pressure;altitude;pressure_sealevel;temperature;humidity
57232;BME280;43488;46.934;8.276;2023-04-10T00:00:05;96934.16;;;6.04;78.10
57232;BME280;43488;46.934;8.276;2023-04-10T00:02:33;96939.53;;;6.03;77.57
57232;BME280;43488;46.934;8.276;2023-04-10T00:05:02;96947.72;;;5.91;77.78
57232;BME280;43488;46.934;8.276;2023-04-10T00:07:29;96944.63;;;5.88;77.32
57232;BME280;43488;46.934;8.276;2023-04-10T00:09:57;96945.59;;;5.87;76.95
57232;BME280;43488;46.934;8.276;2023-04-10T00:12:25;96938.56;;;5.87;76.88
57232;BME280;43488;46.934;8.276;2023-04-10T00:14:53;96941.03;;;5.89;77.88
57232;BME280;43488;46.934;8.276;2023-04-10T00:17:20;96938.41;;;5.97;78.55
57232;BME280;43488;46.934;8.276;2023-04-10T00:19:48;96943.81;;;5.95;78.62
57232;BME280;43488;46.934;8.276;2023-04-10T00:22:17;96940.84;;;5.98;78.94
57232;BME280;43488;46.934;8.276;2023-04-10T00:24:44;96929.75;;;5.96;78.52
57232;BME280;43488;46.934;8.276;2023-04-10T00:27:11;96940.88;;;5.90;78.43
57232;BME280;43488;46.934;8.276;2023-04-10T00:29:39;96935.78;;;5.89;78.74
57232;BME280;43488;46.934;8.276;2023-04-10T00:32:09;96943.63;;;5.89;78.76
57232;BME280;43488;46.934;8.276;2023-04-10T00:34:36;96934.00;;;5.89;79.10
57232;BME280;43488;46.934;8.276;2023-04-10T00:37:03;96924.03;;;5.93;78.88
57232;BME280;43488;46.934;8.276;2023-04-10T00:39:31;96942.81;;;5.88;78.34
57232;BME280;43488;46.934;8.276;2023-04-10T00:41:59;96923.91;;;5.78;78.61
57232;BME280;43488;46.934;8.276;2023-04-10T00:44:30;96938.44;;;5.72;79.53
57232;BME280;43488;46.934;8.276;2023-04-10T00:46:57;96926.00;;;5.75;79.85
57232;BME280;43488;46.934;8.276;2023-04-10T00:49:24;96930.78;;;5.71;79.97
57232;BME280;43488;46.934;8.276;2023-04-10T00:51:52;96929.78;;;5.72;79.64
57232;BME280;43488;46.934;8.276;2023-04-10T00:54:22;96928.97;;;5.71;79.81
57232;BME280;43488;46.934;8.276;2023-04-10T00:56:49;96925.03;;;5.76;80.01
57232;BME280;43488;46.934;8.276;2023-04-10T00:59:17;96922.28;;;5.69;80.35
57232;BME280;43488;46.934;8.276;2023-04-10T01:01:44;96927.34;;;5.62;80.49
57232;BME280;43488;46.934;8.276;2023-04-10T01:04:12;96924.91;;;5.61;81.39
57232;BME280;43488;46.934;8.276;2023-04-10T01:07:01;96929.47;;;5.67;81.17
57232;BME280;43488;46.934;8.276;2023-04-10T01:13:31;96933.72;;;5.68;81.05
57232;BME280;43488;46.934;8.276;2023-04-10T01:16:04;96925.88;;;5.68;80.60
57232;BME280;43488;46.934;8.276;2023-04-10T01:18:45;96930.59;;;5.64;80.45
57232;BME280;43488;46.934;8.276;2023-04-10T01:21:14;96937.31;;;5.59;80.82
57232;BME280;43488;46.934;8.276;2023-04-10T01:27:07;96927.19;;;5.48;80.90
57232;BME280;43488;46.934;8.276;2023-04-10T01:29:42;96935.03;;;5.48;80.71
57232;BME280;43488;46.934;8.276;2023-04-10T01:32:15;96927.53;;;5.53;81.03
57232;BME280;43488;46.934;8.276;2023-04-10T01:34:55;96929.16;;;5.54;80.82
57232;BME280;43488;46.934;8.276;2023-04-10T01:37:29;96932.41;;;5.56;81.10
57232;BME280;43488;46.934;8.276;2023-04-10T01:40:03;96932.94;;;5.43;80.09
57232;BME280;43488;46.934;8.276;2023-04-10T01:42:45;96927.38;;;5.30;80.39
57232;BME280;43488;46.934;8.276;2023-04-10T01:45:18;96937.16;;;5.28;80.85
57232;BME280;43488;46.934;8.276;2023-04-10T01:47:47;96938.16;;;5.27;80.96
57232;BME280;43488;46.934;8.276;2023-04-10T01:50:15;96929.34;;;5.28;80.66
57232;BME280;43488;46.934;8.276;2023-04-10T01:52:44;96937.50;;;5.25;80.71
57232;BME280;43488;46.934;8.276;2023-04-10T01:55:13;96936.34;;;5.19;80.75
57232;BME280;43488;46.934;8.276;2023-04-10T01:57:41;96933.91;;;5.18;80.79
57232;BME280;43488;46.934;8.276;2023-04-10T02:00:10;96935.84;;;4.99;81.59
57232;BME280;43488;46.934;8.276;2023-04-10T02:02:38;96928.66;;;5.01;81.51
57232;BME280;43488;46.934;8.276;2023-04-10T02:05:05;96942.69;;;5.00;81.01
57232;BME280;43488;46.934;8.276;2023-04-10T02:08:04;96937.31;;;5.02;81.20
57232;BME280;43488;46.934;8.276;2023-04-10T02:11:06;96940.09;;;5.08;81.85
57232;BME280;43488;46.934;8.276;2023-04-10T02:13:38;96944.03;;;5.12;81.87
57232;BME280;43488;46.934;8.276;2023-04-10T02:16:07;96942.72;;;5.08;81.92
57232;BME280;43488;46.934;8.276;2023-04-10T02:18:36;96931.13;;;5.11;81.97
57232;BME280;43488;46.934;8.276;2023-04-10T02:21:04;96935.84;;;4.91;82.27
57232;BME280;43488;46.934;8.276;2023-04-10T02:23:34;96937.63;;;4.91;82.21
57232;BME280;43488;46.934;8.276;2023-04-10T02:26:07;96940.44;;;4.97;82.27
57232;BME280;43488;46.934;8.276;2023-04-10T02:28:38;96940.75;;;5.02;82.78
57232;BME280;43488;46.934;8.276;2023-04-10T02:31:06;96943.53;;;5.09;82.26
57232;BME280;43488;46.934;8.276;2023-04-10T02:33:33;96944.34;;;5.09;81.69
57232;BME280;43488;46.934;8.276;2023-04-10T02:36:01;96953.16;;;5.08;81.23
57232;BME280;43488;46.934;8.276;2023-04-10T02:38:29;96948.44;;;5.04;81.40
57232;BME280;43488;46.934;8.276;2023-04-10T02:40:56;96945.97;;;5.02;81.53
57232;BME280;43488;46.934;8.276;2023-04-10T02:43:24;96951.19;;;5.02;81.22
57232;BME280;43488;46.934;8.276;2023-04-10T02:45:51;96959.16;;;5.01;81.35
57232;BME280;43488;46.934;8.276;2023-04-10T02:48:18;96957.22;;;5.03;81.48
57232;BME280;43488;46.934;8.276;2023-04-10T02:50:46;96965.38;;;5.00;80.82
57232;BME280;43488;46.934;8.276;2023-04-10T02:53:15;96961.94;;;4.91;80.69
57232;BME280;43488;46.934;8.276;2023-04-10T02:55:42;96963.25;;;4.95;80.49
57232;BME280;43488;46.934;8.276;2023-04-10T02:58:09;96960.94;;;4.84;81.54
57232;BME280;43488;46.934;8.276;2023-04-10T03:00:37;96967.94;;;4.67;81.62
57232;BME280;43488;46.934;8.276;2023-04-10T03:03:05;96967.09;;;4.59;82.85
57232;BME280;43488;46.934;8.276;2023-04-10T03:05:33;96957.47;;;4.59;83.51
57232;BME280;43488;46.934;8.276;2023-04-10T03:08:01;96959.28;;;4.67;83.72
57232;BME280;43488;46.934;8.276;2023-04-10T03:10:28;96955.03;;;4.66;83.53
57232;BME280;43488;46.934;8.276;2023-04-10T03:12:55;96960.75;;;4.69;83.21
57232;BME280;43488;46.934;8.276;2023-04-10T03:15:23;96965.63;;;4.64;83.16
57232;BME280;43488;46.934;8.276;2023-04-10T03:17:50;96958.44;;;4.66;82.65
57232;BME280;43488;46.934;8.276;2023-04-10T03:20:20;96959.25;;;4.50;83.42
57232;BME280;43488;46.934;8.276;2023-04-10T03:22:47;96957.25;;;4.44;84.21
57232;BME280;43488;46.934;8.276;2023-04-10T03:25:15;96962.84;;;4.57;84.57
57232;BME280;43488;46.934;8.276;2023-04-10T03:27:42;96958.28;;;4.60;84.37
57232;BME280;43488;46.934;8.276;2023-04-10T03:30:10;96962.19;;;4.64;83.95
57232;BME280;43488;46.934;8.276;2023-04-10T03:32:37;96955.03;;;4.66;83.79
57232;BME280;43488;46.934;8.276;2023-04-10T03:35:05;96957.63;;;4.66;83.74
57232;BME280;43488;46.934;8.276;2023-04-10T03:37:34;96947.06;;;4.67;83.64
57232;BME280;43488;46.934;8.276;2023-04-10T03:40:06;96946.91;;;4.69;83.79
57232;BME280;43488;46.934;8.276;2023-04-10T03:42:34;96955.03;;;4.66;82.77
57232;BME280;43488;46.934;8.276;2023-04-10T03:45:02;96948.50;;;4.62;81.67
57232;BME280;43488;46.934;8.276;2023-04-10T03:47:31;96946.53;;;4.55;82.29
57232;BME280;43488;46.934;8.276;2023-04-10T03:49:59;96949.47;;;4.52;82.52
57232;BME280;43488;46.934;8.276;2023-04-10T03:52:28;96943.75;;;4.49;82.18
57232;BME280;43488;46.934;8.276;2023-04-10T03:54:55;96943.03;;;4.39;83.41
57232;BME280;43488;46.934;8.276;2023-04-10T03:57:23;96931.34;;;4.43;84.04
57232;BME280;43488;46.934;8.276;2023-04-10T03:59:51;96935.13;;;4.48;83.97
57232;BME280;43488;46.934;8.276;2023-04-10T04:02:18;96926.44;;;4.48;84.85
57232;BME280;43488;46.934;8.276;2023-04-10T04:04:47;96925.63;;;4.47;84.21
57232;BME280;43488;46.934;8.276;2023-04-10T04:07:14;96927.94;;;4.50;84.73
57232;BME280;43488;46.934;8.276;2023-04-10T04:09:42;96931.41;;;4.59;84.47
57232;BME280;43488;46.934;8.276;2023-04-10T04:12:10;96927.81;;;4.60;84.66
57232;BME280;43488;46.934;8.276;2023-04-10T04:14:37;96926.16;;;4.51;83.41
57232;BME280;43488;46.934;8.276;2023-04-10T04:17:05;96926.09;;;4.35;83.01
57232;BME280;43488;46.934;8.276;2023-04-10T04:19:32;96925.94;;;4.36;83.44
57232;BME280;43488;46.934;8.276;2023-04-10T04:22:00;96926.59;;;4.30;82.75
57232;BME280;43488;46.934;8.276;2023-04-10T04:24:29;96927.94;;;4.08;84.12
57232;BME280;43488;46.934;8.276;2023-04-10T04:26:57;96925.97;;;4.02;85.08
57232;BME280;43488;46.934;8.276;2023-04-10T04:29:24;96926.69;;;4.12;85.49
57232;BME280;43488;46.934;8.276;2023-04-10T04:31:53;96931.38;;;4.09;86.40
57232;BME280;43488;46.934;8.276;2023-04-10T04:34:20;96934.94;;;4.08;86.49
57232;BME280;43488;46.934;8.276;2023-04-10T04:36:47;96932.38;;;4.16;86.79
57232;BME280;43488;46.934;8.276;2023-04-10T04:39:15;96939.88;;;4.19;87.36
57232;BME280;43488;46.934;8.276;2023-04-10T04:41:42;96931.25;;;4.18;88.79
57232;BME280;43488;46.934;8.276;2023-04-10T04:44:09;96933.56;;;4.29;88.72
57232;BME280;43488;46.934;8.276;2023-04-10T04:46:37;96939.84;;;4.11;86.27
57232;BME280;43488;46.934;8.276;2023-04-10T04:49:04;96943.69;;;3.98;87.71
57232;BME280;43488;46.934;8.276;2023-04-10T04:51:31;96939.66;;;4.04;88.14
57232;BME280;43488;46.934;8.276;2023-04-10T04:53:58;96945.72;;;4.13;87.92
57232;BME280;43488;46.934;8.276;2023-04-10T04:56:26;96938.91;;;4.12;88.33
57232;BME280;43488;46.934;8.276;2023-04-10T04:58:53;96941.19;;;4.15;89.04
57232;BME280;43488;46.934;8.276;2023-04-10T05:01:20;96944.44;;;4.17;89.30
57232;BME280;43488;46.934;8.276;2023-04-10T05:03:47;96942.97;;;4.14;89.09
57232;BME280;43488;46.934;8.276;2023-04-10T05:06:14;96941.66;;;4.18;88.46
57232;BME280;43488;46.934;8.276;2023-04-10T05:08:44;96942.84;;;4.24;88.57
57232;BME280;43488;46.934;8.276;2023-04-10T05:11:14;96942.72;;;4.34;88.25
57232;BME280;43488;46.934;8.276;2023-04-10T05:13:41;96944.50;;;4.33;87.06
57232;BME280;43488;46.934;8.276;2023-04-10T05:16:09;96942.75;;;4.08;86.58
57232;BME280;43488;46.934;8.276;2023-04-10T05:18:36;96938.91;;;4.12;87.49
57232;BME280;43488;46.934;8.276;2023-04-10T05:21:03;96936.66;;;4.25;87.16
57232;BME280;43488;46.934;8.276;2023-04-10T05:23:31;96937.28;;;4.19;86.86
57232;BME280;43488;46.934;8.276;2023-04-10T05:25:58;96938.78;;;4.21;86.50
57232;BME280;43488;46.934;8.276;2023-04-10T05:28:26;96945.72;;;4.13;86.38
57232;BME280;43488;46.934;8.276;2023-04-10T05:30:53;96936.47;;;4.18;86.99
57232;BME280;43488;46.934;8.276;2023-04-10T05:33:20;96936.34;;;4.28;87.00
57232;BME280;43488;46.934;8.276;2023-04-10T05:35:51;96941.25;;;4.31;86.57
57232;BME280;43488;46.934;8.276;2023-04-10T05:38:19;96940.75;;;4.36;87.09
57232;BME280;43488;46.934;8.276;2023-04-10T05:40:47;96934.13;;;4.41;86.48
57232;BME280;43488;46.934;8.276;2023-04-10T05:43:14;96934.44;;;4.46;87.13
57232;BME280;43488;46.934;8.276;2023-04-10T05:45:44;96935.28;;;4.55;88.10
57232;BME280;43488;46.934;8.276;2023-04-10T05:48:12;96934.97;;;4.58;87.50
57232;BME280;43488;46.934;8.276;2023-04-10T05:50:39;96935.94;;;4.57;87.28
57232;BME280;43488;46.934;8.276;2023-04-10T05:53:11;96938.06;;;4.53;86.74
57232;BME280;43488;46.934;8.276;2023-04-10T05:55:38;96941.94;;;4.41;87.37
57232;BME280;43488;46.934;8.276;2023-04-10T05:58:06;96942.63;;;4.51;87.66
57232;BME280;43488;46.934;8.276;2023-04-10T06:00:33;96940.34;;;4.48;87.66
57232;BME280;43488;46.934;8.276;2023-04-10T06:03:00;96949.44;;;4.44;88.78
57232;BME280;43488;46.934;8.276;2023-04-10T06:05:29;96946.97;;;4.43;89.65
57232;BME280;43488;46.934;8.276;2023-04-10T06:07:56;96943.06;;;4.47;89.42
57232;BME280;43488;46.934;8.276;2023-04-10T06:10:23;96949.16;;;4.64;89.04
57232;BME280;43488;46.934;8.276;2023-04-10T06:12:51;96942.53;;;4.77;88.24
57232;BME280;43488;46.934;8.276;2023-04-10T06:15:18;96949.84;;;4.82;88.08
57232;BME280;43488;46.934;8.276;2023-04-10T06:17:45;96959.81;;;4.87;87.80
57232;BME280;43488;46.934;8.276;2023-04-10T06:20:13;96952.47;;;4.90;87.16
57232;BME280;43488;46.934;8.276;2023-04-10T06:22:41;96957.88;;;4.97;86.99
57232;BME280;43488;46.934;8.276;2023-04-10T06:25:09;96956.91;;;5.06;86.92
57232;BME280;43488;46.934;8.276;2023-04-10T06:27:36;96950.06;;;5.13;86.90
57232;BME280;43488;46.934;8.276;2023-04-10T06:30:04;96949.22;;;5.21;86.71
57232;BME280;43488;46.934;8.276;2023-04-10T06:32:32;96945.81;;;5.28;86.74
57232;BME280;43488;46.934;8.276;2023-04-10T06:35:00;96957.06;;;5.37;87.89
57232;BME280;43488;46.934;8.276;2023-04-10T06:37:28;96950.22;;;5.52;89.10
57232;BME280;43488;46.934;8.276;2023-04-10T06:40:07;96946.63;;;5.61;89.72
57232;BME280;43488;46.934;8.276;2023-04-10T06:42:35;96947.09;;;5.73;89.61
57232;BME280;43488;46.934;8.276;2023-04-10T06:45:03;96946.72;;;5.84;89.49
57232;BME280;43488;46.934;8.276;2023-04-10T06:47:31;96942.66;;;5.98;88.78
57232;BME280;43488;46.934;8.276;2023-04-10T06:49:58;96940.66;;;6.08;88.24
57232;BME280;43488;46.934;8.276;2023-04-10T06:52:25;96934.59;;;6.16;88.29
57232;BME280;43488;46.934;8.276;2023-04-10T06:54:53;96935.06;;;6.19;91.08
57232;BME280;43488;46.934;8.276;2023-04-10T06:57:21;96932.78;;;6.24;91.97
57232;BME280;43488;46.934;8.276;2023-04-10T06:59:48;96931.25;;;6.30;91.58
57232;BME280;43488;46.934;8.276;2023-04-10T07:02:16;96933.88;;;6.30;91.17
57232;BME280;43488;46.934;8.276;2023-04-10T07:04:43;96925.41;;;6.20;92.08
57232;BME280;43488;46.934;8.276;2023-04-10T07:07:10;96926.84;;;6.31;91.45
57232;BME280;43488;46.934;8.276;2023-04-10T07:09:39;96928.78;;;6.37;90.65
57232;BME280;43488;46.934;8.276;2023-04-10T07:12:07;96923.91;;;6.34;90.72
57232;BME280;43488;46.934;8.276;2023-04-10T07:14:34;96932.31;;;6.52;90.25
57232;BME280;43488;46.934;8.276;2023-04-10T07:17:02;96933.38;;;6.66;90.14
57232;BME280;43488;46.934;8.276;2023-04-10T07:19:29;96926.03;;;6.69;90.05
57232;BME280;43488;46.934;8.276;2023-04-10T07:21:57;96923.69;;;6.74;89.08
57232;BME280;43488;46.934;8.276;2023-04-10T07:24:25;96923.63;;;6.82;89.98
57232;BME280;43488;46.934;8.276;2023-04-10T07:26:53;96919.63;;;6.95;89.79
57232;BME280;43488;46.934;8.276;2023-04-10T07:29:20;96922.91;;;6.97;89.29
57232;BME280;43488;46.934;8.276;2023-04-10T07:31:47;96923.00;;;7.03;88.40
57232;BME280;43488;46.934;8.276;2023-04-10T07:34:15;96921.31;;;7.10;87.67
57232;BME280;43488;46.934;8.276;2023-04-10T07:36:42;96922.31;;;7.09;86.98
57232;BME280;43488;46.934;8.276;2023-04-10T07:39:10;96921.13;;;7.12;86.17
57232;BME280;43488;46.934;8.276;2023-04-10T07:41:37;96919.63;;;7.18;85.96
57232;BME280;43488;46.934;8.276;2023-04-10T07:44:05;96929.50;;;7.30;87.05
57232;BME280;43488;46.934;8.276;2023-04-10T07:46:32;96930.63;;;7.36;87.46
57232;BME280;43488;46.934;8.276;2023-04-10T07:49:00;96928.38;;;7.48;87.93
57232;BME280;43488;46.934;8.276;2023-04-10T07:51:28;96926.97;;;7.60;88.25
57232;BME280;43488;46.934;8.276;2023-04-10T07:53:56;96927.59;;;7.77;88.44
57232;BME280;43488;46.934;8.276;2023-04-10T07:56:24;96923.72;;;7.73;86.29
57232;BME280;43488;46.934;8.276;2023-04-10T07:58:53;96932.78;;;7.85;87.85
57232;BME280;43488;46.934;8.276;2023-04-10T08:01:20;96929.34;;;7.84;88.76
57232;BME280;43488;46.934;8.276;2023-04-10T08:03:48;96932.97;;;7.83;86.96
57232;BME280;43488;46.934;8.276;2023-04-10T08:06:22;96932.88;;;7.91;86.70
57232;BME280;43488;46.934;8.276;2023-04-10T08:08:50;96934.59;;;7.99;86.07
57232;BME280;43488;46.934;8.276;2023-04-10T08:11:28;96934.34;;;8.09;86.57
57232;BME280;43488;46.934;8.276;2023-04-10T08:13:58;96932.44;;;8.17;85.76
57232;BME280;43488;46.934;8.276;2023-04-10T08:16:31;96933.41;;;8.31;85.45
57232;BME280;43488;46.934;8.276;2023-04-10T08:19:01;96934.34;;;8.38;82.45
57232;BME280;43488;46.934;8.276;2023-04-10T08:21:30;96926.00;;;8.49;83.79
57232;BME280;43488;46.934;8.276;2023-04-10T08:24:00;96922.91;;;8.61;82.79
57232;BME280;43488;46.934;8.276;2023-04-10T08:26:28;96927.69;;;8.72;82.18
57232;BME280;43488;46.934;8.276;2023-04-10T08:28:57;96929.81;;;8.83;81.70
57232;BME280;43488;46.934;8.276;2023-04-10T08:31:30;96930.31;;;8.93;80.71
57232;BME280;43488;46.934;8.276;2023-04-10T08:33:57;96927.47;;;9.09;80.82
57232;BME280;43488;46.934;8.276;2023-04-10T08:36:24;96928.59;;;9.00;76.96
57232;BME280;43488;46.934;8.276;2023-04-10T08:38:54;96926.66;;;9.09;77.42
57232;BME280;43488;46.934;8.276;2023-04-10T08:41:21;96934.91;;;9.06;76.73
57232;BME280;43488;46.934;8.276;2023-04-10T08:43:55;96927.97;;;9.20;76.16
57232;BME280;43488;46.934;8.276;2023-04-10T08:46:26;96928.34;;;9.17;78.29
57232;BME280;43488;46.934;8.276;2023-04-10T08:49:01;96932.91;;;9.29;76.68
57232;BME280;43488;46.934;8.276;2023-04-10T08:51:42;96918.56;;;9.32;76.38
57232;BME280;43488;46.934;8.276;2023-04-10T08:54:37;96922.13;;;9.46;76.44
57232;BME280;43488;46.934;8.276;2023-04-10T08:57:14;96927.94;;;9.62;74.79
57232;BME280;43488;46.934;8.276;2023-04-10T08:59:50;96924.34;;;9.70;74.98
57232;BME280;43488;46.934;8.276;2023-04-10T09:02:18;96921.31;;;9.73;74.03
57232;BME280;43488;46.934;8.276;2023-04-10T09:04:50;96916.59;;;9.90;73.93
57232;BME280;43488;46.934;8.276;2023-04-10T09:07:18;96917.47;;;10.04;77.24
57232;BME280;43488;46.934;8.276;2023-04-10T09:09:45;96911.03;;;10.13;75.28
57232;BME280;43488;46.934;8.276;2023-04-10T09:12:13;96908.72;;;10.24;74.50
57232;BME280;43488;46.934;8.276;2023-04-10T09:14:44;96905.56;;;10.42;77.29
57232;BME280;43488;46.934;8.276;2023-04-10T09:17:23;96903.75;;;10.43;74.05
57232;BME280;43488;46.934;8.276;2023-04-10T09:19:55;96901.31;;;10.48;73.21
57232;BME280;43488;46.934;8.276;2023-04-10T09:22:34;96908.66;;;10.59;71.23
57232;BME280;43488;46.934;8.276;2023-04-10T09:25:04;96901.31;;;10.48;68.77
57232;BME280;43488;46.934;8.276;2023-04-10T09:27:34;96901.84;;;10.85;73.71
57232;BME280;43488;46.934;8.276;2023-04-10T09:30:02;96895.41;;;11.07;72.86
57232;BME280;43488;46.934;8.276;2023-04-10T09:32:44;96898.06;;;11.33;69.95
57232;BME280;43488;46.934;8.276;2023-04-10T09:35:14;96897.03;;;11.61;71.39
57232;BME280;43488;46.934;8.276;2023-04-10T09:37:44;96899.88;;;11.33;67.44
57232;BME280;43488;46.934;8.276;2023-04-10T09:40:21;96894.03;;;11.44;67.24
57232;BME280;43488;46.934;8.276;2023-04-10T09:42:50;96894.41;;;11.74;70.02
57232;BME280;43488;46.934;8.276;2023-04-10T09:45:18;96883.25;;;11.92;69.58
57232;BME280;43488;46.934;8.276;2023-04-10T09:48:05;96880.94;;;12.22;67.97
57232;BME280;43488;46.934;8.276;2023-04-10T09:50:37;96885.09;;;12.43;63.78
57232;BME280;43488;46.934;8.276;2023-04-10T09:53:09;96880.44;;;12.45;64.57
57232;BME280;43488;46.934;8.276;2023-04-10T09:55:37;96879.69;;;12.76;65.91
57232;BME280;43488;46.934;8.276;2023-04-10T09:58:05;96873.25;;;12.97;63.55
57232;BME280;43488;46.934;8.276;2023-04-10T10:00:43;96884.22;;;13.00;62.66
57232;BME280;43488;46.934;8.276;2023-04-10T10:03:16;96874.75;;;13.18;62.83
57232;BME280;43488;46.934;8.276;2023-04-10T10:05:48;96872.63;;;13.01;61.28
57232;BME280;43488;46.934;8.276;2023-04-10T10:08:16;96872.88;;;12.93;62.60
57232;BME280;43488;46.934;8.276;2023-04-10T10:10:49;96864.84;;;13.06;61.36
57232;BME280;43488;46.934;8.276;2023-04-10T10:13:37;96864.69;;;13.01;60.15
57232;BME280;43488;46.934;8.276;2023-04-10T10:16:18;96855.03;;;13.14;59.56
57232;BME280;43488;46.934;8.276;2023-04-10T10:19:05;96855.56;;;13.29;55.96
57232;BME280;43488;46.934;8.276;2023-04-10T10:21:34;96847.56;;;13.60;55.80
57232;BME280;43488;46.934;8.276;2023-04-10T10:24:07;96842.38;;;13.72;56.18
57232;BME280;43488;46.934;8.276;2023-04-10T10:26:38;96830.97;;;13.53;57.35
57232;BME280;43488;46.934;8.276;2023-04-10T10:29:08;96830.25;;;13.64;54.92
57232;BME280;43488;46.934;8.276;2023-04-10T10:31:40;96834.22;;;13.74;58.41
57232;BME280;43488;46.934;8.276;2023-04-10T10:34:11;96831.34;;;13.57;58.75
57232;BME280;43488;46.934;8.276;2023-04-10T10:36:39;96833.31;;;13.61;56.25
57232;BME280;43488;46.934;8.276;2023-04-10T10:45:29;96812.59;;;14.50;55.88
57232;BME280;43488;46.934;8.276;2023-04-10T10:47:59;96809.00;;;14.74;55.25
57232;BME280;43488;46.934;8.276;2023-04-10T10:50:56;96809.41;;;15.01;53.63
57232;BME280;43488;46.934;8.276;2023-04-10T10:53:44;96807.44;;;15.08;54.59
57232;BME280;43488;46.934;8.276;2023-04-10T10:58:55;96795.72;;;15.40;52.81
57232;BME280;43488;46.934;8.276;2023-04-10T11:01:24;96792.47;;;15.26;54.87
57232;BME280;43488;46.934;8.276;2023-04-10T11:03:52;96783.94;;;15.35;51.19
57232;BME280;43488;46.934;8.276;2023-04-10T11:06:49;96785.13;;;15.28;52.35
57232;BME280;43488;46.934;8.276;2023-04-10T11:09:50;96789.38;;;15.41;51.43
57232;BME280;43488;46.934;8.276;2023-04-10T11:12:24;96784.84;;;15.06;52.99
57232;BME280;43488;46.934;8.276;2023-04-10T11:15:02;96786.03;;;15.33;50.85
57232;BME280;43488;46.934;8.276;2023-04-10T11:17:50;96782.34;;;15.70;49.55
57232;BME280;43488;46.934;8.276;2023-04-10T11:20:20;96782.56;;;15.80;51.30
57232;BME280;43488;46.934;8.276;2023-04-10T11:23:11;96776.34;;;15.51;51.89
57232;BME280;43488;46.934;8.276;2023-04-10T11:25:52;96781.06;;;15.72;49.32
57232;BME280;43488;46.934;8.276;2023-04-10T11:28:37;96781.06;;;15.49;47.98
57232;BME280;43488;46.934;8.276;2023-04-10T11:31:20;96781.09;;;15.60;48.04
57232;BME280;43488;46.934;8.276;2023-04-10T11:36:23;96779.78;;;16.38;50.61
57232;BME280;43488;46.934;8.276;2023-04-10T11:39:02;96774.78;;;16.13;47.30
57232;BME280;43488;46.934;8.276;2023-04-10T11:41:37;96769.31;;;16.20;47.03
57232;BME280;43488;46.934;8.276;2023-04-10T11:44:07;96765.81;;;16.31;43.67
57232;BME280;43488;46.934;8.276;2023-04-10T11:46:44;96772.69;;;16.44;46.15
57232;BME280;43488;46.934;8.276;2023-04-10T11:49:21;96767.28;;;16.39;47.95
57232;BME280;43488;46.934;8.276;2023-04-10T11:51:51;96765.22;;;16.69;42.00
57232;BME280;43488;46.934;8.276;2023-04-10T11:54:27;96756.22;;;16.59;41.73
57232;BME280;43488;46.934;8.276;2023-04-10T11:57:07;96751.63;;;16.83;41.60
57232;BME280;43488;46.934;8.276;2023-04-10T11:59:48;96752.41;;;17.17;42.51
57232;BME280;43488;46.934;8.276;2023-04-10T12:02:15;96758.69;;;17.44;40.74
57232;BME280;43488;46.934;8.276;2023-04-10T12:04:43;96751.69;;;17.21;39.35
57232;BME280;43488;46.934;8.276;2023-04-10T12:07:10;96761.94;;;16.96;40.37
57232;BME280;43488;46.934;8.276;2023-04-10T12:09:39;96753.00;;;17.02;41.50
57232;BME280;43488;46.934;8.276;2023-04-10T12:12:08;96755.88;;;17.00;42.92
57232;BME280;43488;46.934;8.276;2023-04-10T12:14:40;96751.91;;;17.37;42.22
57232;BME280;43488;46.934;8.276;2023-04-10T12:17:10;96742.31;;;17.35;43.18
57232;BME280;43488;46.934;8.276;2023-04-10T12:19:39;96742.41;;;17.24;42.09
57232;BME280;43488;46.934;8.276;2023-04-10T12:22:10;96741.91;;;17.44;41.11
57232;BME280;43488;46.934;8.276;2023-04-10T12:24:47;96746.63;;;17.20;41.21
57232;BME280;43488;46.934;8.276;2023-04-10T12:29:49;96743.84;;;17.48;41.48
57232;BME280;43488;46.934;8.276;2023-04-10T12:32:17;96738.28;;;17.88;40.53
57232;BME280;43488;46.934;8.276;2023-04-10T12:34:56;96733.91;;;17.44;42.04
57232;BME280;43488;46.934;8.276;2023-04-10T12:37:26;96732.31;;;17.81;41.98
57232;BME280;43488;46.934;8.276;2023-04-10T12:40:13;96735.31;;;17.85;40.25
57232;BME280;43488;46.934;8.276;2023-04-10T12:42:41;96723.53;;;18.03;39.60
57232;BME280;43488;46.934;8.276;2023-04-10T12:45:09;96718.72;;;18.27;40.66
57232;BME280;43488;46.934;8.276;2023-04-10T12:47:57;96721.84;;;17.97;42.04
57232;BME280;43488;46.934;8.276;2023-04-10T12:50:24;96725.03;;;17.94;42.11
57232;BME280;43488;46.934;8.276;2023-04-10T12:53:04;96715.44;;;18.19;42.34
57232;BME280;43488;46.934;8.276;2023-04-10T12:55:35;96714.00;;;18.34;41.43
57232;BME280;43488;46.934;8.276;2023-04-10T12:58:16;96712.84;;;18.25;40.68
57232;BME280;43488;46.934;8.276;2023-04-10T13:00:45;96704.28;;;17.96;41.82
57232;BME280;43488;46.934;8.276;2023-04-10T13:03:12;96707.13;;;18.11;42.38
57232;BME280;43488;46.934;8.276;2023-04-10T13:05:40;96710.22;;;17.64;42.76
57232;BME280;43488;46.934;8.276;2023-04-10T13:08:07;96700.34;;;17.81;41.29
57232;BME280;43488;46.934;8.276;2023-04-10T13:10:37;96706.94;;;17.96;42.04
57232;BME280;43488;46.934;8.276;2023-04-10T13:13:05;96701.44;;;18.02;42.27
57232;BME280;43488;46.934;8.276;2023-04-10T13:15:33;96693.47;;;18.07;42.31
57232;BME280;43488;46.934;8.276;2023-04-10T13:18:01;96695.91;;;18.36;41.21
57232;BME280;43488;46.934;8.276;2023-04-10T13:20:29;96696.19;;;18.12;41.83
57232;BME280;43488;46.934;8.276;2023-04-10T13:22:56;96693.22;;;18.09;42.40
57232;BME280;43488;46.934;8.276;2023-04-10T13:25:23;96685.66;;;18.23;41.81
57232;BME280;43488;46.934;8.276;2023-04-10T13:27:51;96686.53;;;18.06;42.67
57232;BME280;43488;46.934;8.276;2023-04-10T13:30:18;96689.19;;;18.06;42.30
57232;BME280;43488;46.934;8.276;2023-04-10T13:32:45;96694.78;;;18.05;41.72
57232;BME280;43488;46.934;8.276;2023-04-10T13:35:13;96699.56;;;18.03;41.37
57232;BME280;43488;46.934;8.276;2023-04-10T13:37:40;96692.13;;;18.05;41.06
57232;BME280;43488;46.934;8.276;2023-04-10T13:40:08;96687.22;;;17.97;42.83
57232;BME280;43488;46.934;8.276;2023-04-10T13:42:36;96681.66;;;17.98;42.25
57232;BME280;43488;46.934;8.276;2023-04-10T13:45:04;96688.66;;;18.04;43.74